Time;durP1;ratioP1;P1;durP2;ratioP2;P2;SDS_P1;SDS_P2;PMS_P1;PMS_P2;Temp;Humidity;BMP_temperature;BMP_pressure;BME280_temperature;BME280_humidity;BME280_pressure;Samples;Min_cycle;Max_cycle;Signal;HPM_P1;HPM_P2
2022/08/15 00:00:25;;;;;;;12.57;11.10;;;23.60;99.90;;;;;;4866656;29;20286;-55
2022/08/15 00:02:50;;;;;;;14.63;10.52;;;23.60;99.90;;;;;;4850554;29;20049;-55
2022/08/15 00:05:20;;;;;;;12.07;10.80;;;23.60;99.90;;;;;;4866736;29;20060;-54
2022/08/15 00:07:46;;;;;;;12.05;10.57;;;23.50;99.90;;;;;;4866754;29;20037;-55
2022/08/15 00:10:13;;;;;;;13.02;10.95;;;23.50;99.90;;;;;;4867458;29;20597;-54
2022/08/15 00:12:40;;;;;;;13.80;10.65;;;23.40;99.90;;;;;;4849571;29;20050;-55
2022/08/15 00:15:11;;;;;;;13.73;11.00;;;23.40;99.90;;;;;;4867304;29;20118;-54
2022/08/15 00:17:38;;;;;;;12.02;10.00;;;23.40;99.90;;;;;;4866059;29;20101;-54
2022/08/15 00:20:06;;;;;;;13.60;11.07;;;23.40;99.90;;;;;;4867123;29;20029;-55
2022/08/15 00:22:32;;;;;;;15.10;10.88;;;23.30;99.90;;;;;;4866598;29;20053;-54
2022/08/15 00:24:58;;;;;;;12.60;11.30;;;23.40;99.90;;;;;;4866365;29;20053;-54
2022/08/15 00:27:24;;;;;;;13.35;10.50;;;23.30;99.90;;;;;;4867401;29;20045;-54
2022/08/15 00:29:53;;;;;;;15.55;11.40;;;23.30;99.90;;;;;;4866069;29;20057;-54
2022/08/15 00:32:26;;;;;;;13.23;11.20;;;23.20;99.90;;;;;;4867211;29;20069;-54
2022/08/15 00:34:51;;;;;;;13.90;11.40;;;23.20;99.90;;;;;;4866120;29;20671;-54
2022/08/15 00:37:18;;;;;;;12.75;10.43;;;23.20;99.90;;;;;;4849949;29;20101;-54
2022/08/15 00:39:44;;;;;;;13.80;11.07;;;23.20;99.90;;;;;;4850057;29;20082;-52
2022/08/15 00:42:11;;;;;;;12.43;10.73;;;23.10;99.90;;;;;;4865935;29;20616;-54
2022/08/15 00:44:46;;;;;;;13.57;10.88;;;23.10;99.90;;;;;;4867031;29;20060;-54
2022/08/15 00:47:16;;;;;;;15.15;10.98;;;23.10;99.90;;;;;;4865842;29;20053;-55
2022/08/15 00:49:43;;;;;;;12.68;10.80;;;23.10;99.90;;;;;;4867017;29;20045;-55
2022/08/15 00:52:26;;;;;;;13.30;11.43;;;23.00;99.90;;;;;;4866089;29;20395;-54
2022/08/15 00:55:15;;;;;;;14.20;10.80;;;23.00;99.90;;;;;;4866288;29;20130;-55
2022/08/15 00:57:44;;;;;;;14.35;10.75;;;23.00;99.90;;;;;;4859715;29;20053;-56
2022/08/15 01:00:18;;;;;;;14.52;11.60;;;23.00;99.90;;;;;;4865754;29;20097;-54
2022/08/15 01:02:45;;;;;;;13.07;11.25;;;23.00;99.90;;;;;;4866731;29;20045;-55
2022/08/15 01:05:13;;;;;;;15.20;11.05;;;23.00;99.90;;;;;;4866118;29;20061;-54
2022/08/15 01:07:39;;;;;;;13.55;11.50;;;22.90;99.90;;;;;;4867131;29;20050;-54
2022/08/15 01:10:06;;;;;;;14.50;11.18;;;22.80;99.90;;;;;;4870773;29;20057;-54
2022/08/15 01:12:33;;;;;;;13.57;11.43;;;22.80;99.90;;;;;;4869347;29;20134;-54
2022/08/15 01:15:08;;;;;;;15.30;12.15;;;22.90;99.90;;;;;;4870188;29;20063;-54
2022/08/15 01:17:34;;;;;;;15.05;12.25;;;22.80;99.90;;;;;;4869209;29;20049;-53
2022/08/15 01:20:19;;;;;;;13.63;10.90;;;22.80;99.90;;;;;;4870456;29;20064;-54
2022/08/15 01:22:56;;;;;;;14.63;11.88;;;22.70;99.90;;;;;;4853663;29;20458;-53
2022/08/15 01:25:54;;;;;;;12.77;11.38;;;22.70;99.90;;;;;;4869188;29;20058;-56
2022/08/15 01:28:33;;;;;;;14.45;12.07;;;22.70;99.90;;;;;;4860084;29;20070;-53
2022/08/15 01:31:21;;;;;;;15.52;12.00;;;22.60;99.90;;;;;;4869785;29;20121;-54
2022/08/15 01:33:51;;;;;;;14.32;11.85;;;22.60;99.90;;;;;;4869009;29;20050;-54
2022/08/15 01:36:18;;;;;;;14.43;11.57;;;22.50;99.90;;;;;;4870557;29;20052;-55
2022/08/15 01:38:53;;;;;;;14.32;11.57;;;22.50;99.90;;;;;;4868787;29;20060;-54
2022/08/15 01:41:30;;;;;;;13.02;10.90;;;22.50;99.90;;;;;;4869911;29;20102;-55
2022/08/15 01:44:11;;;;;;;14.82;12.15;;;22.60;99.90;;;;;;4869175;29;20049;-54
2022/08/15 01:46:52;;;;;;;13.45;12.05;;;22.50;99.90;;;;;;4869063;29;20042;-54
2022/08/15 01:49:25;;;;;;;16.27;11.13;;;22.50;99.90;;;;;;4852823;29;20053;-55
2022/08/15 01:51:53;;;;;;;13.57;12.15;;;22.50;99.90;;;;;;4868877;29;20073;-54
2022/08/15 01:54:20;;;;;;;13.90;12.00;;;22.50;99.90;;;;;;4869551;29;20100;-55
2022/08/15 01:56:47;;;;;;;14.07;12.20;;;22.50;99.90;;;;;;4869443;29;20113;-54
2022/08/15 01:59:17;;;;;;;15.98;12.23;;;22.50;99.90;;;;;;4869068;29;20466;-54
2022/08/15 02:01:52;;;;;;;12.63;11.00;;;22.50;99.90;;;;;;4869859;29;20053;-54
2022/08/15 02:04:22;;;;;;;15.13;11.80;;;22.40;99.90;;;;;;4868636;29;20053;-54
2022/08/15 02:06:48;;;;;;;13.93;11.82;;;22.40;99.90;;;;;;4853001;29;20077;-54
2022/08/15 02:09:18;;;;;;;14.23;11.57;;;22.40;99.90;;;;;;4868667;29;20053;-56
2022/08/15 02:11:44;;;;;;;13.65;11.70;;;22.40;99.90;;;;;;4869133;29;20097;-55
2022/08/15 02:14:11;;;;;;;13.73;11.75;;;22.40;99.90;;;;;;4868963;29;20117;-53
2022/08/15 02:16:38;;;;;;;14.35;11.98;;;22.40;99.90;;;;;;4868122;29;20097;-54
2022/08/15 02:19:07;;;;;;;14.45;12.30;;;22.40;99.90;;;;;;4869599;29;20074;-54
2022/08/15 02:21:34;;;;;;;15.32;12.52;;;22.40;99.90;;;;;;4868265;29;20348;-55
2022/08/15 02:23:59;;;;;;;13.50;11.70;;;22.40;99.90;;;;;;4869378;29;20045;-55
2022/08/15 02:26:25;;;;;;;14.10;11.73;;;22.40;99.90;;;;;;4851831;29;20056;-54
2022/08/15 02:28:51;;;;;;;15.23;12.18;;;22.40;99.90;;;;;;4868665;29;20078;-55
2022/08/15 02:31:21;;;;;;;15.57;12.90;;;22.50;99.90;;;;;;4868847;29;20037;-54
2022/08/15 02:33:59;;;;;;;13.85;11.50;;;22.40;99.90;;;;;;4868237;29;20153;-54
2022/08/15 02:36:26;;;;;;;14.35;11.80;;;22.40;99.90;;;;;;4869317;29;20128;-54
2022/08/15 02:38:53;;;;;;;14.23;11.65;;;22.40;99.90;;;;;;4867857;29;20045;-54
2022/08/15 02:41:22;;;;;;;13.90;11.98;;;22.30;99.90;;;;;;4868965;29;20045;-54
2022/08/15 02:43:48;;;;;;;15.60;12.05;;;22.30;99.90;;;;;;4867881;29;20050;-53
2022/08/15 02:46:16;;;;;;;12.57;11.25;;;22.10;99.90;;;;;;4868211;29;20042;-53
2022/08/15 02:48:43;;;;;;;13.55;12.15;;;22.20;99.90;;;;;;4868825;29;20534;-54
2022/08/15 02:51:14;;;;;;;14.25;12.73;;;22.20;99.90;;;;;;4867713;29;20045;-54
2022/08/15 02:53:49;;;;;;;14.18;12.52;;;22.20;99.90;;;;;;4852368;29;20065;-54
2022/08/15 02:56:18;;;;;;;14.20;12.70;;;22.20;99.90;;;;;;4867602;29;20045;-52
2022/08/15 02:58:44;;;;;;;15.90;13.93;;;22.10;99.90;;;;;;4851488;29;20102;-54
2022/08/15 03:01:10;;;;;;;17.50;13.38;;;22.20;99.90;;;;;;4868187;29;20052;-53
2022/08/15 03:03:41;;;;;;;16.13;14.43;;;22.10;99.90;;;;;;4867714;29;20049;-54
2022/08/15 03:06:09;;;;;;;14.73;13.07;;;22.10;99.90;;;;;;4868731;29;20065;-54
2022/08/15 03:08:36;;;;;;;15.23;12.52;;;22.00;99.90;;;;;;4867052;29;20117;-52
2022/08/15 03:11:06;;;;;;;14.43;12.93;;;22.00;99.90;;;;;;4868619;29;20045;-53
2022/08/15 03:13:33;;;;;;;14.93;12.77;;;22.00;99.90;;;;;;4867315;29;20571;-53
2022/08/15 03:16:00;;;;;;;15.27;13.18;;;22.00;99.90;;;;;;4867751;29;20093;-53
2022/08/15 03:18:30;;;;;;;16.30;12.55;;;22.00;99.90;;;;;;4868125;29;20053;-54
2022/08/15 03:20:56;;;;;;;16.15;14.27;;;22.00;99.90;;;;;;4867278;29;20477;-53
2022/08/15 03:23:27;;;;;;;14.77;13.27;;;22.10;99.90;;;;;;4868239;29;20057;-54
2022/08/15 03:25:59;;;;;;;15.52;13.38;;;22.10;99.90;;;;;;4867220;29;20049;-54
2022/08/15 03:28:29;;;;;;;15.48;13.88;;;22.20;99.90;;;;;;4867990;29;20133;-54
2022/08/15 03:30:56;;;;;;;18.55;13.98;;;22.20;99.90;;;;;;4850521;29;20053;-53
2022/08/15 03:33:23;;;;;;;15.60;13.45;;;22.20;99.90;;;;;;4867380;29;20049;-54
2022/08/15 03:35:50;;;;;;;16.10;14.10;;;22.30;99.90;;;;;;4868306;29;20174;-54
2022/08/15 03:38:16;;;;;;;15.25;13.38;;;22.30;99.90;;;;;;4866562;29;20042;-54
2022/08/15 03:40:44;;;;;;;15.90;13.88;;;22.30;99.90;;;;;;4868113;29;20072;-54
2022/08/15 03:43:18;;;;;;;15.32;13.65;;;22.40;99.90;;;;;;4866843;29;20080;-53
2022/08/15 03:45:47;;;;;;;14.73;13.13;;;22.30;99.90;;;;;;4867683;29;20078;-55
2022/08/15 03:48:13;;;;;;;15.60;14.00;;;22.30;99.90;;;;;;4867276;29;20041;-53
2022/08/15 03:50:39;;;;;;;15.25;13.50;;;22.40;99.90;;;;;;4866818;29;20560;-54
2022/08/15 03:53:07;;;;;;;16.17;12.98;;;22.40;99.90;;;;;;4851096;29;20057;-54
2022/08/15 03:55:36;;;;;;;14.93;12.75;;;22.30;99.90;;;;;;4866427;29;20510;-53
2022/08/15 03:58:02;;;;;;;15.57;13.43;;;22.30;99.90;;;;;;4851296;29;20232;-53
2022/08/15 04:00:41;;;;;;;19.40;14.38;;;22.30;99.90;;;;;;4866618;29;20063;-53
2022/08/15 04:03:17;;;;;;;15.23;12.18;;;22.40;99.90;;;;;;4867052;29;20056;-54
2022/08/15 04:05:50;;;;;;;14.55;12.13;;;22.40;99.90;;;;;;4867399;29;20045;-54
2022/08/15 04:08:18;;;;;;;14.43;12.25;;;22.30;99.90;;;;;;4849571;29;20059;-53
2022/08/15 04:10:46;;;;;;;14.27;12.77;;;22.20;99.90;;;;;;4867383;29;20065;-53
2022/08/15 04:13:12;;;;;;;14.55;12.88;;;22.20;99.90;;;;;;4849376;29;20115;-54
2022/08/15 04:15:41;;;;;;;14.65;12.75;;;22.30;99.90;;;;;;4866711;29;20053;-55
2022/08/15 04:18:07;;;;;;;15.15;12.77;;;22.20;99.90;;;;;;4866823;29;20073;-53
2022/08/15 04:20:33;;;;;;;16.33;12.85;;;22.20;99.90;;;;;;4866491;29;20060;-54
2022/08/15 04:22:59;;;;;;;15.05;12.77;;;22.20;99.90;;;;;;4867371;29;20041;-54
2022/08/15 04:25:29;;;;;;;15.20;12.90;;;22.10;99.90;;;;;;4866166;29;20050;-56
2022/08/15 04:27:56;;;;;;;15.90;12.68;;;22.10;99.90;;;;;;4867337;29;20042;-53
2022/08/15 04:30:28;;;;;;;15.07;13.48;;;22.10;99.90;;;;;;4866027;29;20642;-54
2022/08/15 04:33:05;;;;;;;16.02;12.90;;;22.00;99.90;;;;;;4866853;29;20045;-54
2022/08/15 04:35:30;;;;;;;15.43;13.80;;;22.10;99.90;;;;;;4866876;29;20049;-55
2022/08/15 04:37:57;;;;;;;15.88;13.20;;;22.10;99.90;;;;;;4865881;29;20037;-55
2022/08/15 04:40:23;;;;;;;15.63;13.10;;;22.00;99.90;;;;;;4866899;29;20072;-53
2022/08/15 04:42:58;;;;;;;14.40;12.90;;;21.80;99.90;;;;;;4865242;29;20054;-54
2022/08/15 04:45:25;;;;;;;15.73;13.13;;;21.70;99.90;;;;;;4866656;29;20514;-53
2022/08/15 04:47:51;;;;;;;15.77;13.90;;;21.70;99.90;;;;;;4866301;29;20049;-53
2022/08/15 04:50:18;;;;;;;14.82;13.32;;;21.80;99.90;;;;;;4866392;29;20069;-54
2022/08/15 04:52:49;;;;;;;14.85;13.15;;;21.80;99.90;;;;;;4866599;29;20056;-55
2022/08/15 04:55:16;;;;;;;15.35;13.18;;;21.80;99.90;;;;;;4865673;29;20948;-55
2022/08/15 04:57:42;;;;;;;17.83;14.43;;;21.80;99.90;;;;;;4867089;29;20054;-53
2022/08/15 05:00:11;;;;;;;16.45;13.80;;;21.80;99.90;;;;;;4849308;29;20049;-55
2022/08/15 05:02:38;;;;;;;17.00;14.88;;;21.80;99.90;;;;;;4866778;29;20506;-53
2022/08/15 05:05:09;;;;;;;16.98;14.93;;;21.90;99.90;;;;;;4866143;29;20060;-53
2022/08/15 05:07:35;;;;;;;17.15;15.30;;;21.90;99.90;;;;;;4866055;29;20394;-54
2022/08/15 05:10:04;;;;;;;18.88;15.90;;;21.90;99.90;;;;;;4864255;29;20473;-54
2022/08/15 05:12:30;;;;;;;18.27;16.38;;;21.90;99.90;;;;;;4862298;29;20094;-52
2022/08/15 05:14:56;;;;;;;19.45;16.83;;;22.00;99.90;;;;;;4863511;29;20060;-52
2022/08/15 05:17:22;;;;;;;19.40;16.60;;;22.00;99.90;;;;;;4862400;29;20069;-52
2022/08/15 05:19:48;;;;;;;17.70;15.90;;;22.00;99.90;;;;;;4846489;29;20058;-53
2022/08/15 05:22:16;;;;;;;19.58;15.88;;;22.00;99.90;;;;;;4862701;29;20073;-51
2022/08/15 05:24:42;;;;;;;18.27;16.38;;;22.00;99.90;;;;;;4862967;29;20053;-53
2022/08/15 05:27:08;;;;;;;20.08;17.08;;;22.00;99.90;;;;;;4863296;29;20064;-51
2022/08/15 05:29:33;;;;;;;18.52;16.52;;;22.00;99.90;;;;;;4862399;29;20060;-52
2022/08/15 05:31:59;;;;;;;19.27;17.27;;;22.10;99.90;;;;;;4847101;29;20084;-50
2022/08/15 05:34:26;;;;;;;20.70;17.33;;;22.10;99.90;;;;;;4861789;29;20057;-51
2022/08/15 05:36:52;;;;;;;18.70;16.83;;;22.10;99.90;;;;;;4863556;29;20054;-51
2022/08/15 05:39:25;;;;;;;19.60;17.48;;;22.20;99.90;;;;;;4862521;29;20057;-52
2022/08/15 05:42:01;;;;;;;19.45;17.33;;;22.20;99.90;;;;;;4862622;29;20078;-53
2022/08/15 05:44:43;;;;;;;19.02;17.05;;;22.20;99.90;;;;;;4863442;29;20050;-52
2022/08/15 05:47:22;;;;;;;;;;;22.30;99.90;;;;;;4845634;29;20186;-53
2022/08/15 05:49:52;;;;;;;20.42;16.92;;;22.20;99.90;;;;;;4863326;29;19928;-54
2022/08/15 05:52:42;;;;;;;19.80;17.70;;;22.30;99.90;;;;;;4862826;29;20117;-50
2022/08/15 05:55:24;;;;;;;21.33;16.25;;;22.30;99.90;;;;;;4865307;29;20459;-50
2022/08/15 05:58:09;;;;;;;18.42;16.45;;;22.30;99.90;;;;;;4866506;29;20064;-49
2022/08/15 06:00:37;;;;;;;18.10;15.50;;;22.40;99.90;;;;;;4866066;29;20049;-52
2022/08/15 06:03:11;;;;;;;19.45;17.35;;;22.40;99.90;;;;;;4866275;29;20075;-51
2022/08/15 06:05:50;;;;;;;19.33;17.30;;;22.40;99.90;;;;;;4866421;29;20405;-52
2022/08/15 06:08:20;;;;;;;18.42;16.55;;;22.50;99.90;;;;;;4865231;29;20101;-53
2022/08/15 06:11:01;;;;;;;18.88;16.88;;;22.50;99.90;;;;;;4866237;29;20053;-54
2022/08/15 06:13:34;;;;;;;18.42;16.52;;;22.50;99.90;;;;;;4848731;29;20061;-52
2022/08/15 06:16:16;;;;;;;18.65;16.58;;;22.60;99.90;;;;;;4865451;29;21145;-51
2022/08/15 06:18:45;;;;;;;18.92;16.25;;;22.70;99.90;;;;;;4866530;29;20083;-52
2022/08/15 06:21:37;;;;;;;18.05;16.10;;;22.80;99.90;;;;;;4848284;29;20056;-50
2022/08/15 06:24:18;;;;;;;18.88;16.88;;;22.70;99.90;;;;;;4866211;29;20506;-53
2022/08/15 06:26:49;;;;;;;20.65;18.15;;;22.70;99.90;;;;;;4849582;29;20057;-52
2022/08/15 06:29:30;;;;;;;20.80;18.25;;;22.70;99.90;;;;;;4865275;29;20132;-51
2022/08/15 06:32:11;;;;;;;19.60;17.60;;;22.70;99.90;;;;;;4834122;29;20581;-51
2022/08/15 06:35:13;;;;;;;19.05;17.05;;;22.70;99.90;;;;;;4847979;29;20064;-51
2022/08/15 06:37:51;;;;;;;19.58;17.48;;;22.80;99.90;;;;;;4855231;29;20066;-50
2022/08/15 06:40:51;;;;;;;19.15;17.23;;;22.90;99.90;;;;;;4866310;29;20108;-52
2022/08/15 06:43:16;;;;;;;18.58;16.60;;;22.90;99.90;;;;;;4864780;29;20085;-52
2022/08/15 06:45:46;;;;;;;20.85;16.88;;;23.10;99.90;;;;;;4865064;29;20053;-52
2022/08/15 06:48:24;;;;;;;20.23;18.05;;;23.00;99.90;;;;;;4865540;29;20085;-52
2022/08/15 06:50:56;;;;;;;19.27;17.17;;;23.10;99.90;;;;;;4847929;29;20046;-52
2022/08/15 06:53:50;;;;;;;18.98;15.77;;;23.30;99.90;;;;;;4865850;29;20045;-52
2022/08/15 06:56:19;;;;;;;20.02;16.05;;;23.40;99.90;;;;;;4848313;29;20049;-50
2022/08/15 06:59:07;;;;;;;18.83;16.27;;;23.50;99.90;;;;;;4864736;29;20064;-53
2022/08/15 07:01:59;;;;;;;21.23;17.17;;;23.50;99.90;;;;;;4865631;29;20045;-52
2022/08/15 07:04:30;;;;;;;18.77;16.63;;;23.50;99.90;;;;;;4863989;29;20046;-51
2022/08/15 07:07:17;;;;;;;18.38;16.35;;;23.50;99.90;;;;;;4848099;29;20064;-53
2022/08/15 07:10:00;;;;;;;17.95;15.27;;;23.70;99.90;;;;;;4865085;29;20050;-51
2022/08/15 07:12:45;;;;;;;16.92;15.13;;;23.90;99.90;;;;;;4847272;29;20057;-54
2022/08/15 07:15:36;;;;;;;18.17;15.38;;;24.10;99.90;;;;;;4864878;29;20077;-52
2022/08/15 07:18:08;;;;;;;18.25;14.88;;;24.20;99.90;;;;;;4864452;29;20529;-52
2022/08/15 07:20:34;;;;;;;18.65;13.73;;;24.30;99.90;;;;;;4863688;29;20074;-52
2022/08/15 07:23:23;;;;;;;17.30;12.98;;;24.50;99.90;;;;;;4864612;29;20517;-53
2022/08/15 07:25:52;;;;;;;17.52;13.23;;;24.40;99.90;;;;;;4863287;29;20041;-53
2022/08/15 07:28:25;;;;;;;16.90;12.25;;;24.60;99.90;;;;;;4863631;29;20459;-53
2022/08/15 07:30:54;;;;;;;15.20;12.95;;;24.80;99.90;;;;;;4865305;29;20113;-53
2022/08/15 07:33:29;;;;;;;18.77;13.43;;;24.80;99.90;;;;;;4866641;29;20065;-53
2022/08/15 07:36:04;;;;;;;16.70;13.32;;;24.70;99.90;;;;;;4864258;29;20041;-52
2022/08/15 07:38:32;;;;;;;14.93;12.60;;;24.60;99.90;;;;;;4865050;29;20062;-53
2022/08/15 07:41:16;;;;;;;18.23;11.82;;;24.60;99.90;;;;;;4865895;29;20094;-54
2022/08/15 07:43:42;;;;;;;14.20;11.98;;;24.70;99.90;;;;;;4863952;29;20052;-53
2022/08/15 07:46:34;;;;;;;16.33;11.80;;;24.80;99.90;;;;;;4866055;29;20045;-51
2022/08/15 07:49:02;;;;;;;;;;;24.90;99.90;;;;;;4848545;29;20057;-53
2022/08/15 07:51:37;;;;;;;18.38;16.48;;;25.10;99.90;;;;;;4866271;29;19931;-54
2022/08/15 07:54:19;;;;;;;20.02;17.25;;;25.00;99.90;;;;;;4866548;29;20042;-53
2022/08/15 07:56:58;;;;;;;23.55;17.95;;;24.90;99.90;;;;;;4866590;29;20054;-50
2022/08/15 07:59:36;;;;;;;19.52;17.42;;;24.80;99.90;;;;;;4866442;29;20049;-51
2022/08/15 08:02:23;;;;;;;21.60;17.48;;;24.80;99.90;;;;;;4867960;29;20045;-50
2022/08/15 08:04:49;;;;;;;19.35;17.25;;;24.80;99.90;;;;;;4866694;29;20106;-51
2022/08/15 08:07:35;;;;;;;20.80;17.25;;;24.80;99.90;;;;;;4866755;29;20052;-52
2022/08/15 08:10:27;;;;;;;19.42;17.42;;;24.90;99.90;;;;;;4867505;29;20410;-52
2022/08/15 08:13:22;;;;;;;16.67;14.90;;;24.80;99.90;;;;;;4866245;29;20512;-54
2022/08/15 08:15:56;;;;;;;19.52;17.42;;;24.90;99.90;;;;;;4844721;29;20053;-52
2022/08/15 08:18:41;;;;;;;18.58;16.30;;;24.80;99.90;;;;;;4867120;29;20106;-52
2022/08/15 08:21:13;;;;;;;17.83;15.93;;;24.90;99.90;;;;;;4849347;29;20082;-54
2022/08/15 08:23:42;;;;;;;;;;;24.70;99.90;;;;;;4867392;29;20056;-53
2022/08/15 08:26:59;;;;;;;17.58;14.73;;;24.80;99.90;;;;;;4866156;29;20015;-52
2022/08/15 08:29:57;;;;;;;16.52;14.35;;;24.90;99.90;;;;;;4824128;29;20399;-53
2022/08/15 08:32:39;;;;;;;17.27;14.32;;;25.00;99.90;;;;;;4867083;29;20105;-54
2022/08/15 08:35:38;;;;;;;17.60;13.07;;;25.00;99.90;;;;;;4865859;29;20060;-53
2022/08/15 08:38:29;;;;;;;15.35;13.75;;;25.00;99.90;;;;;;4865164;29;20045;-53
2022/08/15 08:41:34;;;;;;;14.40;12.75;;;25.10;99.90;;;;;;4867045;29;20069;-53
2022/08/15 08:44:19;;;;;;;16.77;13.15;;;25.30;99.90;;;;;;4866287;29;20525;-52
2022/08/15 08:49:30;;;;;;;15.73;12.80;;;25.50;99.90;;;;;;5139458;27;20383;-52
2022/08/15 08:52:13;;;;;;;13.52;11.73;;;25.50;99.90;;;;;;5096594;27;20135;-52
2022/08/15 08:54:57;;;;;;;13.18;11.02;;;25.60;99.90;;;;;;5137204;28;20138;-53
2022/08/15 08:57:28;;;;;;;12.63;11.15;;;25.60;99.90;;;;;;5137716;27;20422;-51
2022/08/15 09:00:09;;;;;;;13.63;10.27;;;25.60;99.90;;;;;;5137677;27;20047;-51
2022/08/15 09:02:47;;;;;;;12.52;10.40;;;25.70;99.90;;;;;;5135834;28;20452;-53
2022/08/15 09:05:37;;;;;;;12.73;10.75;;;25.80;99.90;;;;;;5137637;27;20069;-52
2022/08/15 09:08:16;;;;;;;12.93;10.30;;;25.80;99.90;;;;;;5136800;27;20043;-53
2022/08/15 09:10:47;;;;;;;11.88;10.55;;;25.90;99.90;;;;;;5137250;27;20036;-53
2022/08/15 09:13:34;;;;;;;12.85;11.32;;;25.90;99.90;;;;;;5138582;27;20046;-53
2022/08/15 09:16:15;;;;;;;14.25;10.55;;;25.80;99.90;;;;;;5137416;27;20047;-52
2022/08/15 09:18:54;;;;;;;12.65;9.82;;;26.00;99.90;;;;;;5125713;27;20593;-50
2022/08/15 09:21:19;;;;;;;10.85;9.68;;;26.10;99.90;;;;;;5115165;28;20052;-49
2022/08/15 09:23:46;;;;;;;13.70;10.18;;;26.10;99.90;;;;;;5116889;28;20032;-52
2022/08/15 09:26:24;;;;;;;11.98;9.52;;;26.40;99.90;;;;;;5117783;28;20048;-50
2022/08/15 09:29:31;;;;;;;13.30;9.25;;;26.50;99.90;;;;;;5115821;28;20075;-53
2022/08/15 09:32:15;;;;;;;12.02;8.13;;;26.70;99.90;;;;;;5094140;28;20052;-53
2022/08/15 09:35:00;;;;;;;9.90;8.13;;;26.90;99.90;;;;;;5115254;28;20044;-52
2022/08/15 09:37:31;;;;;;;10.98;8.32;;;27.10;99.90;;;;;;5114488;28;20035;-51
2022/08/15 09:40:00;;;;;;;10.80;8.25;;;27.20;99.90;;;;;;5116567;28;20048;-52
2022/08/15 09:42:48;;;;;;;9.88;7.57;;;27.10;99.90;;;;;;5116143;28;20048;-50
2022/08/15 09:45:56;;;;;;;10.02;6.95;;;27.10;99.80;;;;;;5115398;28;20050;-53
2022/08/15 09:48:50;;;;;;;9.23;7.05;;;27.10;98.30;;;;;;5116052;28;20055;-53
2022/08/15 09:52:08;;;;;;;12.52;7.07;;;27.20;99.20;;;;;;5116156;28;20059;-52
2022/08/15 09:54:44;;;;;;;13.23;7.68;;;27.20;98.20;;;;;;5102729;28;20059;-52
2022/08/15 09:57:36;;;;;;;12.82;8.50;;;27.30;98.50;;;;;;5116381;28;20091;-52
2022/08/15 10:00:20;;;;;;;9.90;8.05;;;27.40;98.40;;;;;;5104998;28;20044;-52
2022/08/15 10:02:49;;;;;;;11.35;8.38;;;27.60;98.20;;;;;;5134386;27;20058;-51
2022/08/15 10:05:44;;;;;;;9.43;7.35;;;27.40;98.20;;;;;;5102100;28;20039;-52
2022/08/15 10:08:13;;;;;;;10.80;7.20;;;27.30;99.00;;;;;;5096636;28;20079;-50
2022/08/15 10:10:51;;;;;;;9.85;7.75;;;27.20;99.00;;;;;;5102104;28;20078;-53
2022/08/15 10:13:29;;;;;;;12.85;8.43;;;27.50;98.60;;;;;;5102678;28;20089;-52
2022/08/15 10:15:56;;;;;;;10.45;7.75;;;27.30;98.50;;;;;;5101496;28;20110;-51
2022/08/15 10:18:21;;;;;;;10.50;7.70;;;27.20;98.80;;;;;;5102258;28;20040;-52
2022/08/15 10:20:51;;;;;;;10.85;8.48;;;27.30;98.20;;;;;;5101295;28;20125;-53
2022/08/15 10:23:20;;;;;;;10.75;7.80;;;27.30;98.30;;;;;;5088103;28;20052;-53
2022/08/15 10:25:48;;;;;;;14.07;8.43;;;27.30;98.90;;;;;;5080597;28;20033;-52
2022/08/15 10:28:13;;;;;;;11.95;8.90;;;27.50;99.00;;;;;;5080705;28;20051;-51
2022/08/15 10:30:46;;;;;;;13.13;8.93;;;27.40;98.60;;;;;;5081647;28;20045;-52
2022/08/15 10:33:52;;;;;;;12.55;9.93;;;27.50;99.20;;;;;;5080785;28;20127;-52
2022/08/15 10:36:38;;;;;;;10.35;8.38;;;27.40;98.50;;;;;;5038958;28;20034;-52
2022/08/15 10:39:31;;;;;;;12.45;8.90;;;27.60;98.10;;;;;;5096512;28;20056;-52
2022/08/15 10:42:09;;;;;;;11.80;9.32;;;27.60;98.20;;;;;;5101354;28;20051;-52
2022/08/15 10:44:36;;;;;;;12.60;10.05;;;27.70;98.50;;;;;;5101893;28;20097;-52
2022/08/15 10:47:41;;;;;;;13.93;8.80;;;27.70;97.90;;;;;;5100274;28;20079;-51
2022/08/15 10:50:08;;;;;;;12.50;9.35;;;27.90;98.10;;;;;;5101681;28;20052;-52
2022/08/15 10:52:51;;;;;;;14.43;9.20;;;28.10;97.70;;;;;;5101772;28;20095;-53
2022/08/15 10:55:37;;;;;;;12.98;9.25;;;28.20;98.00;;;;;;5096738;28;20048;-52
2022/08/15 10:58:14;;;;;;;13.43;9.75;;;28.40;96.90;;;;;;5101744;28;20043;-49
2022/08/15 11:01:07;;;;;;;13.73;10.02;;;28.40;97.30;;;;;;5101977;28;20058;-53
2022/08/15 11:03:49;;;;;;;12.13;10.15;;;28.20;97.20;;;;;;5101217;28;20165;-52
2022/08/15 11:06:20;;;;;;;13.15;10.15;;;28.30;97.90;;;;;;5098791;28;20878;-51
2022/08/15 11:08:49;;;;;;;14.57;10.48;;;28.10;97.70;;;;;;5089539;28;20078;-52
2022/08/15 11:11:19;;;;;;;13.38;10.88;;;28.10;98.00;;;;;;5083047;28;20076;-51
2022/08/15 11:13:54;;;;;;;12.57;10.95;;;28.10;98.00;;;;;;5081278;28;20041;-53
2022/08/15 11:16:36;;;;;;;14.38;10.60;;;28.30;97.80;;;;;;5080588;28;20519;-50
2022/08/15 11:19:30;;;;;;;14.93;11.82;;;28.30;97.50;;;;;;5081509;28;20048;-51
2022/08/15 11:21:59;;;;;;;14.93;11.45;;;28.20;98.00;;;;;;5089858;28;20049;-52
2022/08/15 11:24:37;;;;;;;13.63;11.15;;;28.20;97.90;;;;;;5088963;28;21264;-51
2022/08/15 11:27:22;;;;;;;15.15;11.48;;;28.20;98.20;;;;;;5088475;28;20513;-52
2022/08/15 11:29:49;;;;;;;15.23;11.98;;;28.00;98.40;;;;;;5088653;28;20057;-53
2022/08/15 11:32:26;;;;;;;15.40;12.23;;;27.80;98.60;;;;;;5088450;28;20048;-52
2022/08/15 11:34:53;;;;;;;15.45;11.98;;;27.80;99.10;;;;;;5090418;28;20056;-51
2022/08/15 11:37:28;;;;;;;18.02;14.00;;;27.70;99.20;;;;;;5089913;28;20097;-53
2022/08/15 11:40:18;;;;;;;17.58;14.00;;;27.60;99.30;;;;;;5091662;28;20037;-53
2022/08/15 11:42:46;;;;;;;15.40;13.18;;;27.20;99.50;;;;;;5087812;28;20131;-50
2022/08/15 11:45:28;;;;;;;16.92;12.52;;;27.10;99.90;;;;;;5089049;28;20156;-50
2022/08/15 11:47:56;;;;;;;13.13;11.25;;;27.10;99.90;;;;;;5091087;28;20090;-53
2022/08/15 11:50:38;;;;;;;15.27;11.85;;;27.10;99.90;;;;;;5080070;28;20076;-50
2022/08/15 11:53:07;;;;;;;14.70;12.18;;;26.90;99.90;;;;;;5080749;28;20049;-53
2022/08/15 11:55:32;;;;;;;14.40;12.07;;;26.80;99.90;;;;;;5080630;28;20056;-51
2022/08/15 11:58:17;;;;;;;14.95;12.30;;;26.60;99.90;;;;;;5080416;28;20133;-52
2022/08/15 12:00:48;;;;;;;14.88;12.65;;;26.50;99.90;;;;;;5080738;28;20054;-54
2022/08/15 12:03:30;;;;;;;15.25;12.95;;;26.30;99.90;;;;;;5078366;28;20058;-53
2022/08/15 12:06:17;;;;;;;14.73;13.02;;;26.20;99.90;;;;;;5079194;28;21112;-53
2022/08/15 12:08:44;;;;;;;16.30;12.40;;;25.90;99.90;;;;;;5078294;28;20048;-53
2022/08/15 12:11:13;;;;;;;14.77;12.70;;;25.90;99.90;;;;;;5079007;28;20041;-53
2022/08/15 12:13:59;;;;;;;14.90;12.48;;;25.80;99.90;;;;;;5077614;28;20052;-53
2022/08/15 12:16:26;;;;;;;14.82;13.00;;;25.80;99.90;;;;;;5079444;28;20166;-52
2022/08/15 12:18:53;;;;;;;15.55;12.40;;;25.70;99.90;;;;;;5081738;28;20037;-52
2022/08/15 12:21:19;;;;;;;14.77;13.00;;;25.60;99.90;;;;;;5098971;28;20048;-53
2022/08/15 12:23:52;;;;;;;14.30;12.43;;;25.50;99.90;;;;;;5080791;28;20055;-52
2022/08/15 12:26:20;;;;;;;15.05;12.52;;;25.50;99.90;;;;;;5079014;28;20508;-51
2022/08/15 12:28:46;;;;;;;14.00;12.20;;;25.10;99.90;;;;;;5080067;28;20045;-54
2022/08/15 12:31:33;;;;;;;15.48;12.52;;;25.10;99.90;;;;;;5079592;28;20052;-54
2022/08/15 12:34:21;;;;;;;15.98;13.45;;;25.10;99.90;;;;;;5079661;28;20041;-52
2022/08/15 12:36:47;;;;;;;14.98;13.48;;;25.20;99.90;;;;;;5079277;28;20028;-51
2022/08/15 12:39:15;;;;;;;14.73;12.18;;;25.10;99.90;;;;;;5097440;28;20055;-52
2022/08/15 12:41:43;;;;;;;17.40;13.15;;;25.10;99.90;;;;;;5099487;28;20069;-53
2022/08/15 12:44:19;;;;;;;15.02;12.82;;;25.10;99.90;;;;;;5099955;28;20051;-52
2022/08/15 12:46:44;;;;;;;16.95;13.45;;;25.10;99.90;;;;;;5099676;28;20047;-52
2022/08/15 12:49:10;;;;;;;14.93;13.32;;;25.00;99.90;;;;;;5100076;28;20082;-51
2022/08/15 12:51:36;;;;;;;17.10;13.02;;;25.20;99.90;;;;;;5100740;28;20044;-51
2022/08/15 12:54:02;;;;;;;16.08;14.13;;;25.20;99.90;;;;;;5099359;28;20099;-53
2022/08/15 12:56:27;;;;;;;15.98;13.98;;;25.10;99.90;;;;;;5100353;28;20394;-52
2022/08/15 12:58:53;;;;;;;17.45;14.15;;;25.10;99.90;;;;;;5099359;28;20044;-53
2022/08/15 13:01:19;;;;;;;16.60;14.13;;;25.30;99.90;;;;;;5099977;28;20086;-52
2022/08/15 13:03:45;;;;;;;15.73;14.02;;;25.20;99.90;;;;;;5099331;28;20097;-50
2022/08/15 13:06:19;;;;;;;16.52;14.55;;;25.40;99.90;;;;;;5099757;28;20448;-51